Time;durP1;ratioP1;P1;durP2;ratioP2;P2;SDS_P1;SDS_P2;PMS_P1;PMS_P2;Temp;Humidity;BMP_temperature;BMP_pressure;BME280_temperature;BME280_humidity;BME280_pressure;Samples;Min_cycle;Max_cycle;Signal;HPM_P1;HPM_P2
2023/10/12 00:01:09;;;;;;;;;;;;;;;15.75;100.00;101184.38;5010623;28;19917;-77
2023/10/12 00:03:34;;;;;;;;;;;;;;;15.78;100.00;101178.16;5016508;28;19924;-77
2023/10/12 00:05:59;;;;;;;;;;;;;;;15.76;100.00;101177.34;5021403;28;19963;-77
2023/10/12 00:08:30;;;;;;;;;;;;;;;15.73;100.00;101194.13;5020755;28;20361;-77
2023/10/12 00:10:56;;;;;;;;;;;;;;;15.70;100.00;101196.03;5007048;28;19917;-77
2023/10/12 00:13:27;;;;;;;;;;;;;;;15.67;100.00;101197.00;5018626;28;19970;-76
2023/10/12 00:15:55;;;;;;;;;;;;;;;15.65;100.00;101202.25;5019135;28;19956;-77
2023/10/12 00:18:22;;;;;;;;;;;;;;;15.65;100.00;101206.66;5028526;28;20015;-76
2023/10/12 00:20:53;;;;;;;;;;;;;;;15.61;100.00;101195.41;5016553;28;19917;-77
2023/10/12 00:23:19;;;;;;;;;;;;;;;15.56;100.00;101193.88;5039851;28;19924;-77
2023/10/12 00:25:47;;;;;;;;;;;;;;;15.55;100.00;101211.41;5014843;28;20288;-77
2023/10/12 00:28:17;;;;;;;;;;;;;;;15.53;100.00;101213.28;5024572;28;19917;-77
2023/10/12 00:30:43;;;;;;;;;;;;;;;15.46;100.00;101207.34;5057222;28;19999;-77
2023/10/12 00:33:09;;;;;;;;;;;;;;;15.38;100.00;101209.44;5023274;28;20024;-77
2023/10/12 00:35:37;;;;;;;;;;;;;;;15.31;100.00;101215.84;5044666;28;19959;-77
2023/10/12 00:38:11;;;;;;;;;;;;;;;15.21;100.00;101223.19;5021428;28;20428;-77
2023/10/12 00:40:37;;;;;;;;;;;;;;;15.14;100.00;101231.34;5041899;28;20004;-77
2023/10/12 00:43:02;;;;;;;;;;;;;;;15.06;100.00;101244.75;5015434;28;20016;-77
2023/10/12 00:45:31;;;;;;;;;;;;;;;15.01;100.00;101246.69;5013366;28;19981;-76
2023/10/12 00:48:01;;;;;;;;;;;;;;;14.97;100.00;101250.31;5023547;28;19917;-77
2023/10/12 00:50:28;;;;;;;;;;;;;;;14.92;100.00;101255.75;5043831;28;19916;-77
2023/10/12 00:52:55;;;;;;;;;;;;;;;14.90;100.00;101249.69;5040534;28;20371;-77
2023/10/12 00:55:21;;;;;;;;;;;;;;;14.85;100.00;101249.00;5018013;28;19917;-77
2023/10/12 00:57:49;;;;;;;;;;;;;;;14.83;100.00;101245.56;5016136;28;19925;-77
2023/10/12 01:00:18;;;;;;;;;;;;;;;14.81;100.00;101255.25;5014200;28;20326;-77
2023/10/12 01:03:06;;;;;;;;;;;;;;;14.78;100.00;101244.00;5035628;28;20013;-77
2023/10/12 01:05:35;;;;;;;;;;;;;;;14.74;100.00;101249.34;5013267;28;19999;-77
2023/10/12 01:08:00;;;;;;;;;;;;;;;14.74;100.00;101246.72;5041908;28;20015;-77
2023/10/12 01:10:31;;;;;;;;;;;;;;;14.75;100.00;101247.63;5013918;28;20031;-77
2023/10/12 01:12:57;;;;;;;;;;;;;;;14.72;100.00;101261.69;5016597;28;20379;-77
2023/10/12 01:15:27;;;;;;;;;;;;;;;14.75;100.00;101250.22;5004326;28;19917;-77
2023/10/12 01:17:52;;;;;;;;;;;;;;;14.72;100.00;101259.06;5013846;28;19917;-77
2023/10/12 01:20:25;;;;;;;;;;;;;;;14.72;100.00;101261.69;5021015;28;19924;-77
2023/10/12 01:22:51;;;;;;;;;;;;;;;14.71;100.00;101267.84;5014080;28;19921;-77
2023/10/12 01:25:28;;;;;;;;;;;;;;;14.72;100.00;101251.19;5017859;28;19925;-77
2023/10/12 01:27:54;;;;;;;;;;;;;;;14.73;100.00;101259.91;5014162;28;19921;-77
2023/10/12 01:30:22;;;;;;;;;;;;;;;14.74;100.00;101246.72;5039465;28;19917;-77
2023/10/12 01:32:57;;;;;;;;;;;;;;;14.75;100.00;101243.22;5017706;28;19925;-77
2023/10/12 01:35:33;;;;;;;;;;;;;;;14.77;100.00;101234.41;5034103;28;19917;-77
2023/10/12 01:38:01;;;;;;;;;;;;;;;14.78;100.00;101223.00;5015868;28;19917;-78
2023/10/12 01:43:13;;;;;;;;;;;;;;;14.79;100.00;101216.88;5012088;28;19950;-77
2023/10/12 01:45:41;;;;;;;;;;;;;;;14.78;100.00;101212.50;5012850;28;19917;-77
2023/10/12 01:48:08;;;;;;;;;;;;;;;14.79;100.00;101209.84;5029000;28;19921;-78
2023/10/12 01:50:33;;;;;;;;;;;;;;;14.80;100.00;101208.91;5007534;28;19917;-78
2023/10/12 01:52:59;;;;;;;;;;;;;;;14.79;100.00;101217.72;5020045;28;19939;-78
2023/10/12 01:55:31;;;;;;;;;;;;;;;14.79;100.00;101225.59;5040002;28;19917;-78
2023/10/12 01:57:57;;;;;;;;;;;;;;;14.78;100.00;101223.88;5032683;28;19913;-78
2023/10/12 02:00:38;;;;;;;;;;;;;;;14.75;100.00;101229.25;5033850;28;19923;-78
2023/10/12 02:03:17;;;;;;;;;;;;;;;14.75;100.00;101229.25;5016591;28;19984;-78
2023/10/12 02:05:48;;;;;;;;;;;;;;;14.72;100.00;101219.69;5049602;28;19917;-78
2023/10/12 02:08:17;;;;;;;;;;;;;;;14.69;100.00;101211.94;5035560;28;20284;-78
2023/10/12 02:10:43;;;;;;;;;;;;;;;14.68;100.00;101219.84;5028082;28;19917;-78
2023/10/12 02:13:10;;;;;;;;;;;;;;;14.64;100.00;101221.72;5030443;28;19921;-78
2023/10/12 02:15:37;;;;;;;;;;;;;;;14.62;100.00;101239.28;5007926;28;19917;-78
2023/10/12 02:18:02;;;;;;;;;;;;;;;14.60;100.00;101237.63;5018237;28;19921;-78
2023/10/12 02:20:34;;;;;;;;;;;;;;;14.58;100.00;101240.28;5009020;28;20000;-79
2023/10/12 02:23:04;;;;;;;;;;;;;;;14.56;100.00;101241.28;5016013;28;19925;-79
2023/10/12 02:25:32;;;;;;;;;;;;;;;14.54;100.00;101224.72;5009162;28;19921;-78
2023/10/12 02:27:58;;;;;;;;;;;;;;;14.51;100.00;101217.78;5012600;28;19940;-78
2023/10/12 02:30:30;;;;;;;;;;;;;;;14.51;100.00;101204.69;5013678;28;19962;-79
2023/10/12 02:33:00;;;;;;;;;;;;;;;14.48;100.00;101187.25;5009093;28;20368;-78
2023/10/12 02:35:36;;;;;;;;;;;;;;;14.46;100.00;101182.97;5022179;28;19920;-78
2023/10/12 02:38:03;;;;;;;;;;;;;;;14.48;100.00;101186.38;5011687;28;19970;-78
2023/10/12 02:40:32;;;;;;;;;;;;;;;14.49;100.00;101188.97;5021853;28;20333;-78
2023/10/12 02:42:59;;;;;;;;;;;;;;;14.47;100.00;101196.03;5036491;28;20539;-78
2023/10/12 02:45:27;;;;;;;;;;;;;;;14.46;100.00;101211.84;5024746;28;20020;-78
2023/10/12 02:47:52;;;;;;;;;;;;;;;14.44;100.00;101196.13;5013742;28;20417;-78
2023/10/12 02:50:26;;;;;;;;;;;;;;;14.42;100.00;101183.97;5013401;28;19917;-78
2023/10/12 02:52:52;;;;;;;;;;;;;;;14.41;100.00;101184.88;5015031;28;19925;-78
2023/10/12 02:58:06;;;;;;;;;;;;;;;14.40;100.00;101181.41;5009052;28;20395;-79
2023/10/12 03:00:35;;;;;;;;;;;;;;;14.42;100.00;101192.72;5002822;28;19922;-78
2023/10/12 03:03:07;;;;;;;;;;;;;;;14.43;100.00;101183.06;5019203;28;19917;-79
2023/10/12 03:05:44;;;;;;;;;;;;;;;14.43;100.00;101185.69;5016455;28;19917;-78
2023/10/12 03:08:14;;;;;;;;;;;;;;;14.43;100.00;101196.19;5017805;28;19920;-78
2023/10/12 03:13:26;;;;;;;;;;;;;;;14.41;100.00;101184.88;5012823;28;19922;-78
2023/10/12 03:16:02;;;;;;;;;;;;;;;14.40;100.00;101183.19;5015061;28;19999;-79
2023/10/12 03:18:28;;;;;;;;;;;;;;;14.38;100.00;101191.09;5022034;28;20334;-79
2023/10/12 03:21:03;;;;;;;;;;;;;;;14.37;100.00;101178.88;5017822;28;20417;-78
2023/10/12 03:23:29;;;;;;;;;;;;;;;14.36;100.00;101181.56;5036487;28;19932;-78
2023/10/12 03:25:54;;;;;;;;;;;;;;;14.36;100.00;101176.34;5015115;28;19921;-78
2023/10/12 03:31:22;;;;;;;;;;;;;;;14.34;100.00;101172.91;5010529;28;19960;-78
2023/10/12 03:33:53;;;;;;;;;;;;;;;14.32;100.00;101185.19;5014011;28;19921;-78
2023/10/12 03:36:52;;;;;;;;;;;;;;;14.29;100.00;101168.66;5012718;28;20004;-78
2023/10/12 03:39:23;;;;;;;;;;;;;;;14.28;100.00;101156.44;5010238;28;20018;-78
2023/10/12 03:44:33;;;;;;;;;;;;;;;14.26;100.00;101189.75;5011421;28;20075;-78
2023/10/12 03:47:04;;;;;;;;;;;;;;;14.25;100.00;101198.50;5015234;28;19970;-78
2023/10/12 03:51:58;;;;;;;;;;;;;;;14.24;100.00;101196.78;5015707;28;19918;-78
2023/10/12 03:54:29;;;;;;;;;;;;;;;14.24;100.00;101194.19;5027113;28;19921;-78
2023/10/12 03:56:59;;;;;;;;;;;;;;;14.22;100.00;101200.38;5015982;28;19948;-78
2023/10/12 03:59:37;;;;;;;;;;;;;;;14.23;100.00;101194.25;5026545;28;20000;-78
2023/10/12 04:02:02;;;;;;;;;;;;;;;14.23;100.00;101194.25;5015785;28;19977;-78
2023/10/12 04:04:30;;;;;;;;;;;;;;;14.20;100.00;101203.06;5031425;28;19921;-79
2023/10/12 04:09:42;;;;;;;;;;;;;;;14.20;100.00;101218.78;5024611;28;19924;-78
2023/10/12 04:12:18;;;;;;;;;;;;;;;14.21;100.00;101217.03;5036838;28;19917;-78
2023/10/12 04:14:55;;;;;;;;;;;;;;;14.21;100.00;101220.50;5012822;28;20379;-79
2023/10/12 04:22:40;;;;;;;;;;;;;;;14.22;100.00;101210.84;5021583;28;20023;-78
2023/10/12 04:25:21;;;;;;;;;;;;;;;14.22;100.00;101213.47;5025293;28;19928;-79
2023/10/12 04:27:52;;;;;;;;;;;;;;;14.22;100.00;101214.38;5013660;28;20387;-79
2023/10/12 04:30:22;;;;;;;;;;;;;;;14.22;100.00;101219.59;5039681;28;19917;-78
2023/10/12 04:35:22;;;;;;;;;;;;;;;14.21;100.00;101219.66;5024072;28;20382;-79
2023/10/12 04:37:47;;;;;;;;;;;;;;;14.23;100.00;101215.22;5016554;28;20361;-79
2023/10/12 04:43:00;;;;;;;;;;;;;;;14.25;100.00;101211.63;5024655;28;19924;-78
2023/10/12 04:45:28;;;;;;;;;;;;;;;14.25;100.00;101214.22;5003258;28;19964;-78
2023/10/12 04:47:57;;;;;;;;;;;;;;;14.24;100.00;101216.91;5037759;28;20406;-78
2023/10/12 04:50:43;;;;;;;;;;;;;;;14.24;100.00;101225.63;5055348;28;19917;-78
2023/10/12 04:53:09;;;;;;;;;;;;;;;14.25;100.00;101234.38;5043327;28;19918;-78
2023/10/12 04:55:34;;;;;;;;;;;;;;;14.25;100.00;101227.34;5053464;28;19919;-78
2023/10/12 04:58:56;;;;;;;;;;;;;;;14.26;100.00;101215.13;5035851;28;19917;-78
2023/10/12 05:00:48;;;;;;;;;;;;;;;14.29;100.00;101217.66;5021066;28;19925;-78
2023/10/12 05:03:25;;;;;;;;;;;;;;;14.28;100.00;101219.38;5045612;28;19925;-78
2023/10/12 05:05:56;;;;;;;;;;;;;;;14.28;100.00;101227.25;5051537;28;19921;-78
2023/10/12 05:08:21;;;;;;;;;;;;;;;14.28;100.00;101242.97;5019276;28;19970;-78
2023/10/12 05:10:46;;;;;;;;;;;;;;;14.29;100.00;101249.13;5025546;28;20322;-78
2023/10/12 05:13:12;;;;;;;;;;;;;;;14.28;100.00;101245.59;5022710;28;19917;-78
2023/10/12 05:15:46;;;;;;;;;;;;;;;14.28;100.00;101266.59;5013902;28;20412;-77
2023/10/12 05:18:12;;;;;;;;;;;;;;;14.31;100.00;101262.16;5021037;28;19924;-78
2023/10/12 05:20:43;;;;;;;;;;;;;;;14.29;100.00;101260.47;5026618;28;19917;-78
2023/10/12 05:23:11;;;;;;;;;;;;;;;14.31;100.00;101267.41;5042601;28;19917;-78
2023/10/12 05:28:18;;;;;;;;;;;;;;;14.31;100.00;101254.28;5041835;28;20344;-77
2023/10/12 05:30:59;;;;;;;;;;;;;;;14.31;100.00;101256.91;5020388;28;20011;-77
2023/10/12 05:36:09;;;;;;;;;;;;;;;14.30;100.00;101261.31;5027935;28;19924;-77
2023/10/12 05:39:11;;;;;;;;;;;;;;;14.30;100.00;101263.94;5045000;28;19974;-77
2023/10/12 05:41:37;;;;;;;;;;;;;;;14.30;100.00;101258.69;5021625;28;19917;-77
2023/10/12 05:44:03;;;;;;;;;;;;;;;14.29;100.00;101262.22;5021413;28;19921;-78
2023/10/12 05:46:29;;;;;;;;;;;;;;;14.28;100.00;101258.72;5030161;28;19944;-77
2023/10/12 05:48:55;;;;;;;;;;;;;;;14.30;100.00;101274.41;5023064;28;19925;-77
2023/10/12 05:51:21;;;;;;;;;;;;;;;14.28;100.00;101282.31;5023069;28;20375;-77
2023/10/12 05:53:48;;;;;;;;;;;;;;;14.28;100.00;101282.31;5035409;28;19925;-78
2023/10/12 05:56:17;;;;;;;;;;;;;;;14.29;100.00;101297.16;5021576;28;20015;-77
2023/10/12 05:58:43;;;;;;;;;;;;;;;14.30;100.00;101287.53;5010967;28;19920;-78
2023/10/12 06:01:09;;;;;;;;;;;;;;;14.31;100.00;101289.25;5017144;28;20402;-77
2023/10/12 06:03:36;;;;;;;;;;;;;;;14.27;100.00;101287.63;5011142;28;19964;-78
2023/10/12 06:06:02;;;;;;;;;;;;;;;14.27;100.00;101293.72;5009732;28;19916;-77
2023/10/12 06:08:28;;;;;;;;;;;;;;;14.29;100.00;101291.06;5035297;28;19963;-77
2023/10/12 06:10:54;;;;;;;;;;;;;;;14.29;100.00;101293.69;5018449;28;19917;-77
2023/10/12 06:13:23;;;;;;;;;;;;;;;14.29;100.00;101296.31;5022720;28;20376;-77
2023/10/12 06:15:53;;;;;;;;;;;;;;;14.29;100.00;101294.56;5019414;28;20421;-78
2023/10/12 06:18:21;;;;;;;;;;;;;;;14.29;100.00;101297.16;5011705;28;20432;-77
2023/10/12 06:20:58;;;;;;;;;;;;;;;14.31;100.00;101296.25;5021729;28;19986;-78
2023/10/12 06:23:23;;;;;;;;;;;;;;;14.32;100.00;101305.81;5031444;28;20281;-78
2023/10/12 06:25:48;;;;;;;;;;;;;;;14.33;100.00;101305.81;5002136;28;19917;-77
2023/10/12 06:28:16;;;;;;;;;;;;;;;14.32;100.00;101309.31;5020701;28;20015;-78
2023/10/12 06:30:42;;;;;;;;;;;;;;;14.31;100.00;101306.75;5023869;28;20017;-78
2023/10/12 06:33:12;;;;;;;;;;;;;;;14.32;100.00;101311.06;5018761;28;20339;-78
2023/10/12 06:35:39;;;;;;;;;;;;;;;14.31;100.00;101312.00;5064711;28;19922;-78
2023/10/12 06:38:22;;;;;;;;;;;;;;;14.31;100.00;101309.38;5009412;28;19921;-77
2023/10/12 06:40:48;;;;;;;;;;;;;;;14.31;100.00;101312.00;5011290;28;19917;-78
2023/10/12 06:45:46;;;;;;;;;;;;;;;14.29;100.00;101315.53;5008663;28;20354;-78
2023/10/12 06:51:02;;;;;;;;;;;;;;;14.32;100.00;101313.69;5036793;28;19939;-78
2023/10/12 06:53:31;;;;;;;;;;;;;;;14.31;100.00;101320.72;5009969;28;19939;-79
2023/10/12 06:55:59;;;;;;;;;;;;;;;14.31;100.00;101325.09;5021671;28;19959;-79
2023/10/12 06:58:36;;;;;;;;;;;;;;;14.32;100.00;101332.06;5022474;28;19921;-79
2023/10/12 07:01:18;;;;;;;;;;;;;;;14.32;100.00;101329.44;5018811;28;19917;-79
2023/10/12 07:03:47;;;;;;;;;;;;;;;14.32;100.00;101329.44;5032924;28;19917;-79
2023/10/12 07:06:14;;;;;;;;;;;;;;;14.32;100.00;101339.94;5022089;28;19971;-78
2023/10/12 07:08:42;;;;;;;;;;;;;;;14.32;100.00;101339.94;5008706;28;19917;-78
2023/10/12 07:11:08;;;;;;;;;;;;;;;14.33;100.00;101339.03;5003732;28;19920;-78
2023/10/12 07:13:39;;;;;;;;;;;;;;;14.36;100.00;101338.94;5015434;28;20364;-79
2023/10/12 07:16:06;;;;;;;;;;;;;;;14.36;100.00;101341.56;5026633;28;19966;-79
2023/10/12 07:18:34;;;;;;;;;;;;;;;14.39;100.00;101341.47;5043512;28;20003;-78
2023/10/12 07:20:59;;;;;;;;;;;;;;;14.38;100.00;101345.84;5025109;28;19928;-79
2023/10/12 07:23:35;;;;;;;;;;;;;;;14.38;100.00;101344.97;5045667;28;20010;-78
2023/10/12 07:26:01;;;;;;;;;;;;;;;14.38;100.00;101350.22;5026708;28;19918;-79
2023/10/12 07:28:32;;;;;;;;;;;;;;;14.37;100.00;101354.63;5021716;28;19917;-78
2023/10/12 07:31:38;;;;;;;;;;;;;;;14.38;100.00;101360.72;5015834;28;19967;-79
2023/10/12 07:36:44;;;;;;;;;;;;;;;14.41;100.00;101356.22;5067329;28;19924;-79
2023/10/12 07:39:20;;;;;;;;;;;;;;;14.47;100.00;101363.91;5044469;28;19921;-79
2023/10/12 07:42:00;;;;;;;;;;;;;;;14.52;100.00;101363.81;5013741;28;20364;-78
2023/10/12 07:44:27;;;;;;;;;;;;;;;14.52;100.00;101364.69;5045010;28;19921;-78
2023/10/12 07:46:56;;;;;;;;;;;;;;;14.54;100.00;101366.38;5020248;28;19945;-78
2023/10/12 07:49:37;;;;;;;;;;;;;;;14.54;100.00;101363.75;5045234;28;19923;-78
2023/10/12 07:52:38;;;;;;;;;;;;;;;14.51;100.00;101362.09;5017465;28;19917;-79
2023/10/12 07:57:18;;;;;;;;;;;;;;;14.56;100.00;101368.06;5021209;28;20391;-78
2023/10/12 07:59:59;;;;;;;;;;;;;;;14.60;100.00;101372.28;5025873;28;20007;-77
2023/10/12 08:13:06;;;;;;;;;;;;;;;14.69;100.00;101358.88;5065410;28;19922;-77
2023/10/12 08:21:10;;;;;;;;;;;;;;;14.90;100.00;101351.22;5031473;28;20032;-77
2023/10/12 08:23:35;;;;;;;;;;;;;;;14.99;100.00;101356.16;5018176;28;20276;-77
2023/10/12 08:26:02;;;;;;;;;;;;;;;15.01;100.00;101358.72;5015309;28;19921;-77
2023/10/12 08:28:36;;;;;;;;;;;;;;;15.06;100.00;101354.19;5046775;28;20424;-77
2023/10/12 08:31:15;;;;;;;;;;;;;;;15.14;100.00;101357.38;5006555;28;19917;-76
2023/10/12 08:33:49;;;;;;;;;;;;;;;15.29;100.00;101361.28;5041660;28;20025;-76
2023/10/12 08:38:40;;;;;;;;;;;;;;;15.61;100.00;101357.50;5047673;28;19922;-76
2023/10/12 08:41:21;;;;;;;;;;;;;;;15.71;100.00;101356.28;5024228;28;19921;-76
2023/10/12 08:43:52;;;;;;;;;;;;;;;15.86;100.00;101361.00;5037064;28;19915;-76
2023/10/12 08:46:37;;;;;;;;;;;;;;;15.93;100.00;101366.88;5007262;28;20292;-76
2023/10/12 08:52:04;;;;;;;;;;;;;;;15.85;100.00;101369.78;5012854;28;19924;-76
2023/10/12 08:54:32;;;;;;;;;;;;;;;15.92;100.00;101378.28;5040462;28;19920;-76
2023/10/12 08:56:57;;;;;;;;;;;;;;;15.93;100.00;101387.91;5051679;28;19916;-76
2023/10/12 08:59:23;;;;;;;;;;;;;;;15.93;100.00;101389.69;5042980;28;19966;-76
2023/10/12 09:01:51;;;;;;;;;;;;;;;15.86;100.00;101389.06;5014632;28;19924;-76
2023/10/12 09:04:22;;;;;;;;;;;;;;;15.78;100.00;101385.84;5039961;28;19917;-76
2023/10/12 09:06:55;;;;;;;;;;;;;;;15.67;100.00;101381.84;5022165;28;19921;-76
2023/10/12 09:12:11;;;;;;;;;;;;;;;15.55;100.00;101386.63;5021486;28;19932;-76
2023/10/12 09:14:42;;;;;;;;;;;;;;;15.53;100.00;101388.44;5040887;28;19965;-76
2023/10/12 09:17:08;;;;;;;;;;;;;;;15.57;100.00;101383.03;5023725;28;21198;-76
2023/10/12 09:19:34;;;;;;;;;;;;;;;15.60;100.00;101396.06;5041751;28;19965;-76
2023/10/12 09:22:03;;;;;;;;;;;;;;;15.56;100.00;101394.44;5025138;28;20353;-76
2023/10/12 09:24:35;;;;;;;;;;;;;;;15.49;100.00;101395.56;5042405;28;19928;-76
2023/10/12 09:27:11;;;;;;;;;;;;;;;15.49;100.00;101394.72;5018885;28;19920;-76
2023/10/12 09:29:42;;;;;;;;;;;;;;;15.50;100.00;101389.44;5043354;28;19917;-76
2023/10/12 09:32:23;;;;;;;;;;;;;;;15.52;100.00;101384.09;5027279;28;19921;-76
2023/10/12 09:37:43;;;;;;;;;;;;;;;15.50;100.00;101383.28;5017877;28;19975;-77
2023/10/12 09:40:25;;;;;;;;;;;;;;;15.51;100.00;101369.25;5029924;28;20577;-77
2023/10/12 09:42:54;;;;;;;;;;;;;;;15.53;100.00;101377.94;5012450;28;20426;-77
2023/10/12 09:45:23;;;;;;;;;;;;;;;15.54;100.00;101372.63;5021439;28;19913;-77
2023/10/12 09:47:55;;;;;;;;;;;;;;;15.55;100.00;101379.59;5022498;28;20358;-77
2023/10/12 09:50:27;;;;;;;;;;;;;;;15.57;100.00;101372.53;5030360;28;20312;-77
2023/10/12 09:52:58;;;;;;;;;;;;;;;15.58;100.00;101363.72;5034739;28;19968;-77
2023/10/12 09:55:32;;;;;;;;;;;;;;;15.58;100.00;101373.38;5020115;28;19919;-77
2023/10/12 09:58:06;;;;;;;;;;;;;;;15.55;100.00;101376.97;5030423;28;19922;-77
2023/10/12 10:03:17;;;;;;;;;;;;;;;15.62;100.00;101364.47;5031638;28;20351;-77
2023/10/12 10:05:52;;;;;;;;;;;;;;;15.64;100.00;101368.75;5022389;28;19977;-77
2023/10/12 10:08:20;;;;;;;;;;;;;;;15.67;100.00;101367.84;5037691;28;20354;-76
2023/10/12 10:10:46;;;;;;;;;;;;;;;15.67;100.00;101371.31;5032118;28;20417;-77
2023/10/12 10:13:31;;;;;;;;;;;;;;;15.68;100.00;101375.66;5040338;28;19915;-77
2023/10/12 10:15:56;;;;;;;;;;;;;;;15.68;100.00;101364.28;5015898;28;20379;-77
2023/10/12 10:18:41;;;;;;;;;;;;;;;15.70;100.00;101365.09;5042716;28;19915;-77
2023/10/12 10:21:07;;;;;;;;;;;;;;;15.78;100.00;101362.19;5025023;27;19913;-77
2023/10/12 10:23:37;;;;;;;;;;;;;;;15.88;100.00;101353.03;5042492;28;20278;-77
2023/10/12 10:26:17;;;;;;;;;;;;;;;15.95;100.00;101351.03;5024833;28;19921;-77
2023/10/12 10:28:54;;;;;;;;;;;;;;;16.05;100.00;101347.13;5018993;28;19924;-77
2023/10/12 10:31:31;;;;;;;;;;;;;;;16.24;100.00;101344.66;5026793;28;19917;-77
2023/10/12 10:34:01;;;;;;;;;;;;;;;16.39;100.00;101344.06;5013819;28;20402;-77
2023/10/12 10:36:27;;;;;;;;;;;;;;;16.52;100.00;101334.75;5015667;28;19917;-77
2023/10/12 10:41:22;;;;;;;;;;;;;;;16.63;100.00;101329.91;5026962;28;19959;-77
2023/10/12 10:43:47;;;;;;;;;;;;;;;16.71;100.00;101326.97;5047033;28;19916;-77
2023/10/12 10:46:16;;;;;;;;;;;;;;;16.82;100.00;101331.81;5008940;28;20648;-77
2023/10/12 10:48:41;;;;;;;;;;;;;;;16.90;100.00;101324.44;5006058;28;19917;-77
2023/10/12 10:51:18;;;;;;;;;;;;;;;16.86;100.00;101330.75;5009221;28;19923;-77
2023/10/12 10:53:51;;;;;;;;;;;;;;;16.89;100.00;101330.63;5054329;28;19922;-77
2023/10/12 10:56:16;;;;;;;;;;;;;;;17.08;100.00;101325.44;5040356;28;19917;-77
2023/10/12 10:58:41;;;;;;;;;;;;;;;17.25;100.00;101337.88;5034776;28;19924;-77
2023/10/12 11:01:12;;;;;;;;;;;;;;;17.26;100.00;101329.91;5022831;28;19917;-77
2023/10/12 11:03:39;;;;;;;;;;;;;;;17.32;100.00;101332.28;5068250;28;19917;-77
2023/10/12 11:06:08;;;;;;;;;;;;;;;17.31;100.00;101337.63;5022962;28;19960;-77
2023/10/12 11:08:33;;;;;;;;;;;;;;;17.35;100.00;101327.81;5037473;28;19918;-77
2023/10/12 11:13:38;;;;;;;;;;;;;;;17.47;100.00;101317.56;5038309;28;19924;-77
2023/10/12 11:16:20;;;;;;;;;;;;;;;17.46;100.00;101307.09;5024724;28;19917;-77
2023/10/12 11:18:46;;;;;;;;;;;;;;;17.44;100.00;101309.81;5039639;28;19917;-77
2023/10/12 11:21:13;;;;;;;;;;;;;;;17.46;100.00;101305.31;5025249;28;20000;-77
2023/10/12 11:23:39;;;;;;;;;;;;;;;17.44;100.00;101325.63;5054239;28;19915;-77
2023/10/12 11:26:04;;;;;;;;;;;;;;;17.40;100.00;101320.56;5065496;28;20013;-77
2023/10/12 11:28:30;;;;;;;;;;;;;;;17.35;100.00;101323.38;5043673;28;19922;-77
2023/10/12 11:31:07;;;;;;;;;;;;;;;17.30;100.00;101326.22;5024609;28;20371;-77
2023/10/12 11:33:33;;;;;;;;;;;;;;;17.26;100.00;101326.41;5031791;28;19939;-77
2023/10/12 11:36:03;;;;;;;;;;;;;;;17.20;100.00;101313.50;5025461;28;20449;-77
2023/10/12 11:38:28;;;;;;;;;;;;;;;17.11;100.00;101319.19;5039537;28;19923;-77
2023/10/12 11:40:57;;;;;;;;;;;;;;;17.05;100.00;101315.03;5033844;28;19927;-77
2023/10/12 11:43:29;;;;;;;;;;;;;;;17.02;100.00;101310.75;5031235;28;20763;-77
2023/10/12 11:46:01;;;;;;;;;;;;;;;17.06;100.00;101317.59;5029883;28;20011;-77
2023/10/12 11:48:27;;;;;;;;;;;;;;;17.15;100.00;101304.97;5065479;28;20320;-77
2023/10/12 11:50:53;;;;;;;;;;;;;;;17.20;100.00;101297.69;5009388;28;19924;-77
2023/10/12 11:53:19;;;;;;;;;;;;;;;17.23;100.00;101302.84;5035201;28;20388;-77
2023/10/12 11:55:44;;;;;;;;;;;;;;;17.25;100.00;101306.28;5021747;28;19921;-77
2023/10/12 11:58:16;;;;;;;;;;;;;;;17.23;100.00;101297.56;5038088;28;19926;-77
2023/10/12 12:00:44;;;;;;;;;;;;;;;17.19;100.00;101285.44;5025432;28;20379;-77
2023/10/12 12:03:10;;;;;;;;;;;;;;;17.15;100.00;101304.97;5042059;28;20271;-77
2023/10/12 12:05:39;;;;;;;;;;;;;;;17.07;100.00;101300.03;5024949;28;19921;-77
2023/10/12 12:08:18;;;;;;;;;;;;;;;17.08;100.00;101289.41;5024044;28;19946;-77
2023/10/12 12:10:45;;;;;;;;;;;;;;;17.12;100.00;101294.56;5009862;28;19922;-77
2023/10/12 12:13:12;;;;;;;;;;;;;;;17.09;100.00;101296.38;5044950;28;19959;-77
2023/10/12 12:15:40;;;;;;;;;;;;;;;17.05;100.00;101296.59;5021081;28;19924;-76
2023/10/12 12:18:13;;;;;;;;;;;;;;;16.96;100.00;101297.84;5040103;28;20337;-77
2023/10/12 12:20:39;;;;;;;;;;;;;;;16.84;100.00;101287.84;5082104;28;20384;-77
2023/10/12 12:23:05;;;;;;;;;;;;;;;16.77;100.00;101289.84;5023989;28;19974;-77
2023/10/12 12:25:33;;;;;;;;;;;;;;;16.67;100.00;101280.59;5023826;28;19917;-77
2023/10/12 12:28:03;;;;;;;;;;;;;;;16.54;100.00;101261.84;5028312;28;19917;-77
2023/10/12 12:30:32;;;;;;;;;;;;;;;16.50;100.00;101255.00;5030213;28;20010;-77
2023/10/12 12:33:03;;;;;;;;;;;;;;;16.49;100.00;101263.81;5043554;28;20008;-77
2023/10/12 12:35:29;;;;;;;;;;;;;;;16.34;100.00;101265.28;5011386;28;19921;-77
2023/10/12 12:38:01;;;;;;;;;;;;;;;16.18;100.00;101265.97;5014341;28;19928;-77
2023/10/12 12:40:30;;;;;;;;;;;;;;;16.06;100.00;101251.56;5012825;28;19924;-77
2023/10/12 12:42:55;;;;;;;;;;;;;;;15.98;100.00;101249.22;5025199;28;19917;-77
2023/10/12 12:45:21;;;;;;;;;;;;;;;15.90;100.00;101246.91;5022339;28;19917;-77
2023/10/12 12:47:46;;;;;;;;;;;;;;;15.85;100.00;101251.47;5022608;28;19918;-77
2023/10/12 12:50:11;;;;;;;;;;;;;;;15.84;100.00;101243.66;5034684;28;20016;-77
2023/10/12 12:52:36;;;;;;;;;;;;;;;15.84;100.00;101248.91;5035024;28;20021;-77
2023/10/12 12:55:09;;;;;;;;;;;;;;;15.88;100.00;101256.59;5025167;28;19920;-77
2023/10/12 12:57:35;;;;;;;;;;;;;;;15.96;100.00;101252.81;5010208;28;19925;-77
2023/10/12 13:00:07;;;;;;;;;;;;;;;16.02;100.00;101253.47;5022577;28;20034;-77
2023/10/12 13:02:32;;;;;;;;;;;;;;;15.98;100.00;101262.34;5013201;28;19921;-77
2023/10/12 13:04:57;;;;;;;;;;;;;;;15.91;100.00;101258.25;5006225;28;19923;-78
2023/10/12 13:07:22;;;;;;;;;;;;;;;15.87;100.00;101260.16;5012152;28;19913;-77
2023/10/12 13:09:48;;;;;;;;;;;;;;;15.85;100.00;101261.13;5038128;28;20360;-77
2023/10/12 13:12:13;;;;;;;;;;;;;;;15.82;100.00;101255.97;5010801;28;19970;-77
2023/10/12 13:14:42;;;;;;;;;;;;;;;15.83;100.00;101260.34;5021063;28;20337;-77
2023/10/12 13:17:08;;;;;;;;;;;;;;;15.80;100.00;101258.69;5026938;28;19999;-77
2023/10/12 13:19:34;;;;;;;;;;;;;;;15.80;100.00;101255.22;5021359;28;19924;-77
2023/10/12 13:21:59;;;;;;;;;;;;;;;15.83;100.00;101257.72;5027246;28;19917;-77
2023/10/12 13:24:25;;;;;;;;;;;;;;;15.95;100.00;101257.22;5045122;28;19927;-77
2023/10/12 13:26:51;;;;;;;;;;;;;;;16.07;100.00;101256.75;5020888;28;19917;-78
2023/10/12 13:29:17;;;;;;;;;;;;;;;16.17;100.00;101251.13;5021975;28;19921;-81
2023/10/12 13:31:42;;;;;;;;;;;;;;;16.23;100.00;101250.88;5031728;28;20016;-80
2023/10/12 13:34:10;;;;;;;;;;;;;;;16.27;100.00;101244.56;5042367;28;19963;-80
2023/10/12 13:36:36;;;;;;;;;;;;;;;16.32;100.00;101246.09;5011503;28;19921;-77
2023/10/12 13:39:03;;;;;;;;;;;;;;;16.39;100.00;101252.81;5046244;28;20376;-77
2023/10/12 13:41:29;;;;;;;;;;;;;;;16.53;100.00;101246.13;5014173;28;19983;-77
2023/10/12 13:43:55;;;;;;;;;;;;;;;16.58;100.00;101242.38;5044101;28;20011;-77
2023/10/12 13:46:20;;;;;;;;;;;;;;;16.62;100.00;101238.69;5015339;28;19945;-77
2023/10/12 13:48:48;;;;;;;;;;;;;;;16.56;100.00;101244.22;5024813;28;19970;-77
2023/10/12 13:51:20;;;;;;;;;;;;;;;16.44;100.00;101241.22;5019122;28;20707;-77
2023/10/12 13:53:46;;;;;;;;;;;;;;;16.33;100.00;101234.66;5017789;28;19921;-77
2023/10/12 13:56:12;;;;;;;;;;;;;;;16.29;100.00;101233.06;5014411;28;19917;-77
2023/10/12 13:58:37;;;;;;;;;;;;;;;16.31;100.00;101238.25;5039435;28;19917;-76
2023/10/12 14:01:04;;;;;;;;;;;;;;;16.40;100.00;101235.25;5025389;28;19925;-77